• Join FlightAware (Why Join?)
  • Login
  • US Flag 
02:58AM EDT


 

Airport Tracker/Info


-or-


 

Live Flight TrackerFlight Track Log ✈ N779AZ ✈ 10-Jun-2013 ✈ KLWM - KMEM

Flight Track Log - Related Links

Times and Time Zones

All times are in EDT time to prevent confusion due to time zone crossing. See the N779AZ flight status page for this flight to view local times or setup timezone preferences in your user account.

Time Position Orientation Groundspeed Altitude Reporting Facility
EDT Latitude Longitude Course Direction KTS MPH feet Rate Location/Type
01:59PM 42.7000 -71.1333 216° Southwest 145 167 1,100  Level KA90
01:59PM 42.6667 -71.1667 216° Southwest 200 230 2,000 660 Climbing KA90
02:00PM 42.6333 -71.2167 228° Southwest 228 262 2,300 1,680 Climbing KA90
02:01PM 42.5672 -71.2506 201° Southwest 266 306 5,200 3,300 Climbing Boston Center
02:02PM 42.5028 -71.2686 192° South 259 298 9,000 2,460 Climbing Boston Center
02:04PM 42.4283 -71.3319 212° Southwest 283 326 10,700 2,820 Climbing Boston Center
02:06PM 42.3492 -71.5719 246° West 436 502 18,200 2,880 Climbing Boston Center
02:07PM 42.3292 -71.6931 257° West 359 413 19,500 1,620 Climbing Boston Center
02:08PM 42.3092 -71.8169 258° West 345 397 21,500 2,040 Climbing Boston Center
02:09PM 42.2889 -71.9406 258° West 340 391 23,600 1,800 Climbing Boston Center
02:10PM 42.2683 -72.0614 257° West 335 386 25,200 1,440 Climbing Boston Center
02:11PM 42.2481 -72.1906 258° West 341 392 26,500 1,260 Climbing Boston Center
02:12PM 42.2272 -72.3225 258° West 353 406 27,800 1,200 Climbing Boston Center
02:13PM 42.2044 -72.4569 257° West 358 412 29,000 1,200 Climbing Boston Center
02:14PM 42.1814 -72.5858 256° West 358 412 30,300 1,140 Climbing Boston Center
02:15PM 42.1606 -72.6950 256° West 363 418 31,300 1,080 Climbing Boston Center
02:16PM 42.0933 -72.8317 236° Southwest 363 418 32,800 1,200 Climbing Boston Center
02:17PM 42.0219 -72.9514 231° Southwest 363 418 34,000 1,140 Climbing Boston Center
02:18PM 41.9506 -73.0653 230° Southwest 382 440 35,100 840 Climbing Boston Center
02:19PM 41.8628 -73.1369 211° Southwest 382 440 35,700 420 Climbing Boston Center
02:20PM 41.7519 -73.1664 191° South 382 440 36,000 120 Climbing Boston Center
02:21PM 41.6700 -73.2628 221° Southwest 388 447 36,000  Level Boston Center
02:22PM 41.6044 -73.3839 234° Southwest 382 440 36,000  Level Boston Center
02:23PM 41.4989 -73.5825 235° Southwest 412 474 36,000  Level New York Center
02:24PM 41.4292 -73.7097 234° Southwest 423 487 36,000  Level New York Center
02:25PM 41.3614 -73.8311 233° Southwest 423 487 36,000  Level New York Center
02:26PM 41.2917 -73.9522 233° Southwest 423 487 36,000  Level New York Center
02:27PM 41.2300 -74.0678 235° Southwest 423 487 36,000  Level New York Center
02:28PM 41.1600 -74.1883 232° Southwest 423 487 36,000  Level New York Center
02:29PM 41.0811 -74.3219 232° Southwest 423 487 36,000  Level New York Center
02:30PM 41.0150 -74.4450 235° Southwest 423 487 36,000  Level New York Center
02:31PM 40.9442 -74.5703 233° Southwest 423 487 36,000  Level New York Center
02:32PM 40.8803 -74.6819 233° Southwest 423 487 36,000  Level New York Center
02:33PM 40.8094 -74.8039 233° Southwest 423 487 36,000  Level New York Center
02:34PM 40.7486 -74.9347 238° Southwest 423 487 36,000  Level New York Center
02:35PM 40.6875 -75.0678 239° Southwest 423 487 36,000  Level New York Center
02:36PM 40.6286 -75.1981 239° Southwest 423 487 36,000  Level New York Center
02:37PM 40.5694 -75.3308 240° Southwest 423 487 36,000  Level New York Center
02:38PM 40.5100 -75.4633 239° Southwest 423 487 36,000  Level New York Center
02:39PM 40.4486 -75.5928 238° Southwest 416 479 36,000  Level New York Center
02:40PM 40.3911 -75.7225 240° Southwest 416 479 36,000  Level New York Center
02:41PM 40.3292 -75.8514 238° Southwest 416 479 36,000  Level New York Center
02:42PM 40.2672 -75.9828 238° Southwest 421 484 36,000  Level New York Center
02:43PM 40.2006 -76.1219 238° Southwest 424 488 36,000  Level New York Center
02:45PM 40.0775 -76.3939 239° Southwest 435 501 36,000  Level Washington Center
02:46PM 40.0269 -76.5017 239° Southwest 435 501 36,000  Level Washington Center
02:47PM 39.9547 -76.6525 238° Southwest 440 506 36,000  Level Washington Center
02:48PM 39.8869 -76.7894 237° Southwest 440 506 36,000  Level Washington Center
02:50PM 39.8250 -76.9233 239° Southwest 434 499 36,000  Level Washington Center
02:50PM 39.7761 -77.0250 238° Southwest 429 494 36,000  Level Washington Center
02:51PM 39.7031 -77.1828 239° Southwest 424 488 36,000  Level Washington Center
02:53PM 39.6431 -77.3108 239° Southwest 424 488 36,000  Level Washington Center
02:54PM 39.5786 -77.4439 238° Southwest 424 488 36,000  Level Washington Center
02:54PM 39.5181 -77.5742 239° Southwest 424 488 36,000  Level Washington Center
02:55PM 39.4556 -77.7042 238° Southwest 424 488 36,000  Level Washington Center
02:57PM 39.3950 -77.8314 238° Southwest 424 488 36,000  Level Washington Center
02:57PM 39.3400 -77.9719 243° Southwest 424 488 36,000  Level Washington Center
02:58PM 39.2831 -78.1067 241° Southwest 429 494 36,000  Level Washington Center
03:00PM 39.2281 -78.2442 243° Southwest 429 494 36,000  Level Washington Center
03:01PM 39.1750 -78.3789 243° Southwest 429 494 36,000  Level Washington Center
03:02PM 39.1197 -78.5158 243° Southwest 429 494 36,000  Level Washington Center
03:02PM 39.0642 -78.6525 242° Southwest 429 494 36,000  Level Washington Center
03:03PM 39.0106 -78.7894 243° Southwest 429 494 36,000  Level Washington Center
03:04PM 38.9547 -78.9231 242° Southwest 429 494 36,000  Level Washington Center
03:06PM 38.9011 -79.0567 243° Southwest 429 494 36,000  Level Washington Center
03:06PM 38.8469 -79.1928 243° Southwest 429 494 36,000  Level Washington Center
03:07PM 38.8206 -79.3114 254° West 429 494 36,000  Level Washington Center
03:08PM 38.7897 -79.4936 258° West 434 499 36,000  Level Washington Center
03:10PM 38.7639 -79.6386 257° West 451 519 36,000  Level Washington Center
03:11PM 38.7333 -79.8047 257° West 451 519 36,000  Level Washington Center
03:11PM 38.7050 -79.9547 256° West 451 519 36,000  Level Washington Center
03:13PM 38.6689 -80.1311 255° West 441 507 36,000  Level Indianapolis Center
03:14PM 38.6397 -80.2847 256° West 443 510 36,000  Level Indianapolis Center
03:15PM 38.6117 -80.4364 257° West 440 506 36,000  Level Indianapolis Center
03:16PM 38.5836 -80.5878 257° West 437 503 36,000  Level Indianapolis Center
03:17PM 38.5542 -80.7403 256° West 440 506 36,000  Level Indianapolis Center
03:18PM 38.5247 -80.8919 256° West 438 504 36,000  Level Indianapolis Center
03:19PM 38.4950 -81.0408 256° West 433 498 36,000  Level Indianapolis Center
03:20PM 38.4647 -81.1928 256° West 437 503 36,000  Level Indianapolis Center
03:21PM 38.4289 -81.3733 256° West 433 498 36,000  Level Indianapolis Center
03:22PM 38.3983 -81.5256 256° West 437 503 36,000  Level Indianapolis Center
03:23PM 38.3689 -81.6750 256° West 431 496 36,000  Level Indianapolis Center
03:24PM 38.3358 -81.8217 254° West 428 493 36,000  Level Indianapolis Center
03:25PM 38.2953 -81.9619 250° West 422 486 36,000  Level Indianapolis Center
03:26PM 38.2547 -82.1036 250° West 425 489 36,000  Level Indianapolis Center
03:27PM 38.2161 -82.2444 251° West 422 486 36,000  Level Indianapolis Center
03:28PM 38.1764 -82.3850 250° West 422 486 36,000  Level Indianapolis Center
03:29PM 38.1297 -82.5492 250° West 420 483 36,000  Level Indianapolis Center
03:30PM 38.0886 -82.6864 249° West 416 479 36,000  Level Indianapolis Center
03:31PM 38.0489 -82.8267 250° West 420 483 36,000  Level Indianapolis Center
03:32PM 38.0086 -82.9692 250° West 427 491 36,000  Level Indianapolis Center
03:33PM 37.9667 -83.1083 249° West 424 488 36,000  Level Indianapolis Center
03:34PM 37.9267 -83.2503 250° West 426 490 36,000  Level Indianapolis Center
03:35PM 37.8778 -83.4122 249° West 422 486 36,000  Level Indianapolis Center
03:36PM 37.8356 -83.5514 249° West 424 488 36,000  Level Indianapolis Center
03:37PM 37.7953 -83.6892 250° West 421 484 36,000  Level Indianapolis Center
03:38PM 37.7528 -83.8283 249° West 423 487 36,000  Level Indianapolis Center
03:39PM 37.7108 -83.9683 249° West 427 491 36,000  Level Indianapolis Center
03:40PM 37.6608 -84.1292 249° West 424 488 36,000  Level Indianapolis Center
03:42PM 37.6186 -84.2697 249° West 427 491 36,000  Level Indianapolis Center
03:43PM 37.5750 -84.4114 249° West 434 499 36,000  Level Indianapolis Center
03:44PM 37.5314 -84.5517 249° West 431 496 36,000  Level Indianapolis Center
03:45PM 37.4919 -84.6839 249° West 407 468 36,000  Level Indianapolis Center
03:46PM 37.4489 -84.8122 247° West 399 459 36,000  Level Indianapolis Center
03:47PM 37.3981 -84.9575 246° West 390 449 36,000  Level Indianapolis Center
03:48PM 37.3686 -85.0869 254° West 386 444 36,000  Level Indianapolis Center
03:49PM 37.3253 -85.2125 247° West 388 447 36,000  Level Indianapolis Center
03:50PM 37.2847 -85.3431 249° West 397 457 36,000  Level Indianapolis Center
03:51PM 37.2425 -85.4775 249° West 408 470 36,000  Level Indianapolis Center
03:52PM 37.1983 -85.6136 248° West 416 479 36,000  Level Indianapolis Center
03:53PM 37.1547 -85.7489 248° West 415 478 36,000  Level Indianapolis Center
03:54PM 37.1108 -85.8856 248° West 418 481 36,000  Level Indianapolis Center
03:55PM 37.0600 -86.0433 248° West 416 479 36,000  Level Indianapolis Center
03:56PM 37.0158 -86.1783 248° West 417 480 36,000  Level Indianapolis Center
03:57PM 36.9706 -86.3131 247° West 417 480 36,000  Level Indianapolis Center
03:58PM 36.9361 -86.4247 249° West 420 483 36,000  Level Memphis Center
03:59PM 36.8778 -86.5572 241° Southwest 425 489 36,000  Level Memphis Center
04:00PM 36.8175 -86.7000 242° Southwest 431 496 36,000  Level Memphis Center
04:01PM 36.7586 -86.8297 240° Southwest 431 496 36,000  Level Memphis Center
04:02PM 36.7042 -86.9614 243° Southwest 431 496 36,000  Level Memphis Center
04:03PM 36.6450 -87.0881 240° Southwest 426 490 36,000  Level Memphis Center
04:04PM 36.5878 -87.2197 242° Southwest 426 490 36,000  Level Memphis Center
04:05PM 36.5286 -87.3486 240° Southwest 426 490 36,000  Level Memphis Center
04:06PM 36.4711 -87.4769 241° Southwest 431 496 36,000  Level Memphis Center
04:07PM 36.4136 -87.6056 241° Southwest 431 496 36,000 -180 Level Memphis Center
04:08PM 36.3558 -87.7311 240° Southwest 416 479 35,700 -540 Descending Memphis Center
04:09PM 36.2961 -87.8592 240° Southwest 431 496 35,000 -720 Descending Memphis Center
04:10PM 36.2400 -87.9844 241° Southwest 431 496 34,300 -540 Descending Memphis Center
04:11PM 36.1881 -88.0992 241° Southwest 398 458 34,000 -1,200 Descending Memphis Center
04:12PM 36.1417 -88.1956 239° Southwest 383 441 31,900 -2,580 Descending Memphis Center
04:13PM 36.0833 -88.3153 239° Southwest 390 449 28,900 -3,000 Descending Memphis Center
04:14PM 36.0208 -88.4503 240° Southwest 404 465 26,000 -2,520 Descending Memphis Center
04:15PM 35.9603 -88.5772 240° Southwest 415 478 23,900 -1,500 Descending Memphis Center
04:16PM 35.9014 -88.7067 241° Southwest 431 496 23,100 -540 Descending Memphis Center
04:17PM 35.8406 -88.8358 240° Southwest 431 496 22,900 -1,200 Descending Memphis Center
04:18PM 35.7836 -88.9547 239° Southwest 431 496 20,800 -2,280 Descending Memphis Center
04:19PM 35.7306 -89.0631 239° Southwest 408 470 18,400 -2,400 Descending Memphis Center
04:20PM 35.6689 -89.1508 229° Southwest 383 441 16,100 -2,400 Descending Memphis Center
04:21PM 35.5969 -89.2464 227° Southwest 377 434 13,600 -2,040 Descending Memphis Center
04:22PM 35.5286 -89.3314 225° Southwest 359 413 12,100 -1,380 Descending Memphis Center
04:23PM 35.4583 -89.4114 223° Southwest 354 407 10,900 -1,380 Descending Memphis Center
04:24PM 35.3839 -89.4683 212° Southwest 326 375 9,400 -1,680 Descending Memphis Center
04:25PM 35.3217 -89.5197 214° Southwest 295 339 7,600 -1,620 Descending Memphis Center
04:26PM 35.2572 -89.5714 213° Southwest 279 321 6,200 -1,380 Descending Memphis Center
04:27PM 35.1908 -89.6228 212° Southwest 271 312 4,900 -1,140 Descending Memphis Center
04:28PM 35.1306 -89.6742 215° Southwest 266 306 4,000 -780 Descending Memphis Center
04:29PM 35.0808 -89.7303 223° Southwest 259 298 3,400 -1,080 Descending Memphis Center
04:30PM 35.0603 -89.8117 253° West 254 292 1,900 -900 Descending Memphis Center
04:31PM 35.0586 -89.8803 268° West 236 272 1,700 -480 Descending Memphis Center
04:32PM 35.0500 -89.9167 254° West 136 157 1,000 -780 Descending KMEM
04:32PM 35.0500 -89.9500 270° West 123 142 500 -720 Descending KMEM
04:36PM 35.0333 -89.9667 345° North  Level FlightAware Approximate
04:43PM 35.0424 -89.9767 345° North  Level Estimated
04:44PM 35.0424 -89.9767 345° North  Level Estimated
04:45PM 35.0424 -89.9767 345° North  Level Estimated
04:46PM 35.0424 -89.9767 345° North  Level Estimated
04:47PM 35.0424 -89.9767 345° North  Level Estimated
04:48PM 35.0424 -89.9767 345° North  Level Estimated
04:49PM 35.0424 -89.9767 345° North  Level Estimated
04:50PM 35.0424 -89.9767 345° North  Level Estimated
04:51PM 35.0424 -89.9767 345° North  Level Estimated
04:52PM 35.0424 -89.9767 345° North  Level Estimated
04:53PM 35.0424 -89.9767 345° North  Level Estimated